Terminal Aerodrome Forecast
Issued by NWS Tuscon, AZ

Home | Current Version | Previous Version | Text Only | Print | Product List | Glossary On
Versions: 1 2 3 4 5 6 7 8 9 10 11 12 13 14
000
FTUS45 KTWC 180520
TAFTUS
TAF
KTUS 180520Z 1806/1906 26006KT P6SM FEW110 BKN200
     FM180800 15006KT P6SM BKN200
     FM181600 VRB04KT P6SM FEW100 SCT250
     FM182100 30007KT P6SM SCT110 SCT250
     FM190300 26005KT P6SM SCT250=

USA.gov is the U.S. government's official web portal to all federal, state and local government web resources and services.